Time;durP1;ratioP1;P1;durP2;ratioP2;P2;SDS_P1;SDS_P2;PMS_P1;PMS_P2;Temp;Humidity;BMP_temperature;BMP_pressure;BME280_temperature;BME280_humidity;BME280_pressure;Samples;Min_cycle;Max_cycle;Signal;HPM_P1;HPM_P2
2023/02/24 00:01:23;;;;;;;15.60;10.00;;;;;;;9.74;71.89;96207.00;5074625;28;20051;-76
2023/02/24 00:03:55;;;;;;;14.77;9.80;;;;;;;9.73;72.60;96206.19;5074375;28;20056;-76
2023/02/24 00:06:25;;;;;;;20.43;11.83;;;;;;;9.76;72.42;96200.59;5074337;28;20470;-76
2023/02/24 00:08:53;;;;;;;30.73;19.38;;;;;;;9.78;72.44;96203.81;5073757;28;20277;-76
2023/02/24 00:11:20;;;;;;;34.13;17.85;;;;;;;9.78;72.46;96195.22;5074335;28;20562;-76
2023/02/24 00:13:48;;;;;;;21.90;13.35;;;;;;;9.75;72.56;96188.59;5074211;28;20430;-76
2023/02/24 00:16:17;;;;;;;24.55;11.40;;;;;;;9.73;72.64;96185.34;5074341;28;20047;-76
2023/02/24 00:18:45;;;;;;;15.23;10.45;;;;;;;9.70;72.73;96193.53;5073363;28;20059;-76
2023/02/24 00:21:16;;;;;;;16.15;10.20;;;;;;;9.68;74.14;96183.28;5074436;28;20048;-76
2023/02/24 00:23:46;;;;;;;16.17;10.82;;;;;;;9.71;73.67;96182.13;5074336;28;20573;-76
2023/02/24 00:26:16;;;;;;;18.45;11.98;;;;;;;9.72;73.57;96178.53;5074466;28;20053;-76
2023/02/24 00:28:44;;;;;;;17.75;10.13;;;;;;;9.71;73.32;96176.91;5073324;28;20502;-76
2023/02/24 00:31:14;;;;;;;15.43;10.55;;;;;;;9.70;73.47;96170.88;5074327;28;20147;-76
2023/02/24 00:33:43;;;;;;;15.93;10.85;;;;;;;9.71;73.39;96171.72;5075466;28;20055;-76
2023/02/24 00:36:13;;;;;;;15.45;10.80;;;;;;;9.68;73.51;96164.25;5075281;28;20053;-76
2023/02/24 00:38:45;;;;;;;16.55;11.05;;;;;;;9.63;73.86;96174.44;5073322;28;20048;-76
2023/02/24 00:41:15;;;;;;;17.70;10.53;;;;;;;9.62;74.74;96167.59;5073997;28;20448;-76
2023/02/24 00:43:45;;;;;;;16.65;10.93;;;;;;;9.67;74.28;96170.47;5073789;28;20139;-76
2023/02/24 00:46:16;;;;;;;23.45;11.95;;;;;;;9.67;73.86;96165.25;5074147;28;20059;-76
2023/02/24 00:48:45;;;;;;;13.43;9.95;;;;;;;9.64;74.59;96160.41;5073201;28;20078;-76
2023/02/24 00:51:16;;;;;;;19.38;12.48;;;;;;;9.64;74.59;96160.41;5073961;28;20403;-76
2023/02/24 00:53:45;;;;;;;17.05;11.13;;;;;;;9.62;74.22;96162.38;5073951;28;20044;-76
2023/02/24 00:56:15;;;;;;;16.10;11.30;;;;;;;9.61;74.32;96155.59;5073846;28;20143;-76
2023/02/24 00:58:43;;;;;;;17.90;11.88;;;;;;;9.60;74.10;96153.97;5072894;28;20462;-76
2023/02/24 01:01:13;;;;;;;19.58;12.13;;;;;;;9.58;74.29;96153.38;5074012;28;20502;-76
2023/02/24 01:03:41;;;;;;;18.80;11.68;;;;;;;9.59;74.70;96153.16;5082892;28;20047;-76
2023/02/24 01:06:11;;;;;;;16.38;11.25;;;;;;;9.65;75.82;96151.63;5087017;28;20049;-76
2023/02/24 01:08:46;;;;;;;14.57;11.48;;;;;;;9.71;75.24;96148.28;5075782;28;20124;-76
2023/02/24 01:14:05;;;;;;;27.70;13.20;;;;;;;9.67;74.31;96139.22;5072721;28;20494;-76
2023/02/24 01:16:33;;;;;;;20.08;12.43;;;;;;;9.63;74.01;96141.38;5071914;28;20291;-75
2023/02/24 01:19:01;;;;;;;16.13;10.32;;;;;;;9.62;74.94;96146.75;5070765;28;20045;-75
2023/02/24 01:21:28;;;;;;;15.15;11.68;;;;;;;9.61;74.59;96142.56;5071613;28;20250;-75
2023/02/24 01:23:57;;;;;;;18.65;12.68;;;;;;;9.59;74.84;96137.53;5073336;28;20059;-76
2023/02/24 01:26:27;;;;;;;19.08;12.30;;;;;;;9.60;74.68;96139.16;5071575;28;20127;-76
2023/02/24 01:28:55;;;;;;;16.20;12.43;;;;;;;9.58;74.57;96128.13;5069951;28;20055;-76
2023/02/24 01:31:23;;;;;;;17.00;11.82;;;;;;;9.58;74.78;96137.75;5071020;28;20040;-76
2023/02/24 01:33:52;;;;;;;21.30;12.45;;;;;;;9.59;74.76;96134.13;5070863;28;20044;-76
2023/02/24 01:36:21;;;;;;;14.45;10.63;;;;;;;9.62;75.65;96125.94;5071248;28;20055;-76
2023/02/24 01:38:49;;;;;;;17.70;11.15;;;;;;;9.64;75.18;96123.94;5070272;28;20070;-76
2023/02/24 01:41:19;;;;;;;18.20;12.00;;;;;;;9.64;75.05;96129.16;5060905;28;20052;-75
2023/02/24 01:44:02;;;;;;;20.63;12.63;;;;;;;9.64;75.07;96124.78;5052064;28;20140;-76
2023/02/24 01:46:31;;;;;;;17.85;11.52;;;;;;;9.63;74.72;96122.34;5051587;28;20473;-75
2023/02/24 01:49:07;;;;;;;16.05;10.90;;;;;;;9.64;76.47;96123.94;5050650;28;20083;-75
2023/02/24 01:51:39;;;;;;;17.15;11.43;;;;;;;9.66;75.33;96119.34;5051702;28;20049;-75
2023/02/24 01:54:12;;;;;;;16.08;11.25;;;;;;;9.65;76.63;96120.38;5049240;28;20510;-76
2023/02/24 01:56:41;;;;;;;22.63;12.27;;;;;;;9.68;75.74;96110.38;5050592;28;20053;-75
2023/02/24 01:59:10;;;;;;;16.33;11.25;;;;;;;9.74;76.56;96108.81;5050926;28;20055;-76
2023/02/24 02:01:41;;;;;;;19.98;12.63;;;;;;;9.74;75.29;96103.59;5052702;28;20426;-76
2023/02/24 02:04:15;;;;;;;16.33;11.88;;;;;;;9.76;75.73;96103.44;5052570;28;20611;-75
2023/02/24 02:06:44;;;;;;;15.73;11.55;;;;;;;9.79;75.37;96100.44;5052451;28;20418;-75
2023/02/24 02:09:14;;;;;;;20.35;12.82;;;;;;;9.81;74.83;96103.66;5051595;28;20134;-75
2023/02/24 02:11:41;;;;;;;17.65;12.75;;;;;;;9.81;74.59;96101.06;5052272;28;20311;-76
2023/02/24 02:14:10;;;;;;;16.98;11.70;;;;;;;9.80;75.67;96104.66;5052178;28;20504;-75
2023/02/24 02:16:55;;;;;;;15.77;12.40;;;;;;;9.82;75.93;96100.88;5052138;28;20075;-76
2023/02/24 02:19:48;;;;;;;18.88;13.35;;;;;;;9.84;76.06;96106.69;5051533;28;20057;-75
2023/02/24 02:22:39;;;;;;;16.02;12.00;;;;;;;9.87;76.73;96108.91;5048998;28;20053;-76
2023/02/24 02:25:15;;;;;;;18.70;13.32;;;;;;;9.87;76.43;96101.09;5052246;28;20127;-76
2023/02/24 02:28:06;;;;;;;18.17;12.30;;;;;;;9.84;75.48;96098.88;5052046;28;20059;-76
2023/02/24 02:30:54;;;;;;;21.42;13.43;;;;;;;9.84;76.04;96096.28;5051927;28;20045;-76
2023/02/24 02:34:11;;;;;;;18.25;13.18;;;;;;;9.86;75.40;96085.66;5051911;28;20510;-75
2023/02/24 02:36:55;;;;;;;19.80;13.40;;;;;;;9.81;74.92;96086.22;4971394;28;20053;-76
2023/02/24 02:39:34;;;;;;;18.58;14.38;;;;;;;9.81;74.92;96083.63;4970644;28;20141;-76
2023/02/24 02:42:13;;;;;;;24.42;15.75;;;;;;;9.77;74.84;96090.19;5035127;28;20132;-76
2023/02/24 02:44:54;;;;;;;17.00;12.68;;;;;;;9.78;75.86;96084.00;5055954;28;20570;-75
2023/02/24 02:47:28;;;;;;;21.42;14.18;;;;;;;9.79;75.46;96087.41;5055388;28;20152;-76
2023/02/24 02:50:01;;;;;;;17.00;12.50;;;;;;;9.80;77.23;96082.03;5055070;28;20053;-75
2023/02/24 02:52:34;;;;;;;21.58;14.13;;;;;;;9.84;77.28;96083.25;5055975;28;20071;-76
2023/02/24 02:55:08;;;;;;;23.10;15.10;;;;;;;9.83;76.70;96076.41;5055697;28;20505;-76
2023/02/24 02:57:39;;;;;;;21.67;15.27;;;;;;;9.82;76.03;96079.25;5056003;28;20158;-76
2023/02/24 03:00:12;;;;;;;18.73;15.23;;;;;;;9.82;75.99;96076.63;5055159;28;20053;-76
2023/02/24 03:02:44;;;;;;;21.60;16.00;;;;;;;9.84;76.27;96070.22;5055833;28;20053;-75
2023/02/24 03:05:19;;;;;;;21.67;16.10;;;;;;;9.87;75.93;96064.63;5055771;28;20513;-76
2023/02/24 03:07:53;;;;;;;19.17;15.15;;;;;;;9.87;75.62;96067.22;5055243;28;20084;-75
2023/02/24 03:10:26;;;;;;;23.98;16.30;;;;;;;9.89;76.67;96060.03;5055435;28;20045;-76
2023/02/24 03:12:57;;;;;;;24.25;17.63;;;;;;;9.88;75.46;96053.22;5055624;28;20075;-76
2023/02/24 03:15:29;;;;;;;25.98;16.15;;;;;;;9.87;76.09;96050.81;5055525;28;20131;-76
2023/02/24 03:18:01;;;;;;;23.73;17.10;;;;;;;9.87;76.28;96051.59;5054672;28;20045;-75
2023/02/24 03:20:33;;;;;;;;;;;;;;;9.87;76.49;96051.59;5055670;28;20048;-76
2023/02/24 03:23:04;;;;;;;24.15;17.13;;;;;;;9.85;76.40;96043.16;5055496;28;19921;-75
2023/02/24 03:25:38;;;;;;;21.40;14.90;;;;;;;9.86;77.84;96043.97;5055748;28;20102;-76
2023/02/24 03:28:15;;;;;;;19.05;14.73;;;;;;;9.92;77.72;96042.41;5054582;28;20336;-76
2023/02/24 03:30:46;;;;;;;25.52;17.52;;;;;;;9.93;77.02;96044.84;5055510;28;20061;-76
2023/02/24 03:33:23;;;;;;;26.60;17.93;;;;;;;9.93;76.38;96050.06;5055513;28;20053;-76
2023/02/24 03:35:52;;;;;;;24.30;16.48;;;;;;;9.95;76.95;96060.25;5055221;28;20281;-76
2023/02/24 03:38:23;;;;;;;25.23;17.00;;;;;;;9.96;76.48;96056.69;5054597;28;20147;-76
2023/02/24 03:40:52;;;;;;;23.10;17.30;;;;;;;9.94;76.01;96050.84;5098882;22;20055;-79
2023/02/24 03:43:25;;;;;;;26.30;17.45;;;;;;;9.85;76.07;96042.38;5083953;28;20452;-79
2023/02/24 03:45:54;;;;;;;18.50;15.50;;;;;;;9.80;76.33;96039.53;5084041;28;20056;-81
2023/02/24 03:48:23;;;;;;;20.02;15.23;;;;;;;9.76;76.10;96039.13;5083114;28;20060;-81
2023/02/24 03:50:52;;;;;;;18.25;15.15;;;;;;;9.73;76.77;96052.53;5082720;28;20059;-81
2023/02/24 03:53:31;;;;;;;18.77;14.77;;;;;;;9.76;78.83;96053.94;5083655;28;20098;-77
2023/02/24 03:56:05;;;;;;;16.05;13.63;;;;;;;9.80;77.97;96048.16;5082935;28;20045;-78
2023/02/24 03:58:45;;;;;;;21.38;14.43;;;;;;;9.85;78.54;96051.00;5079824;28;20333;-79
2023/02/24 04:01:18;;;;;;;18.92;13.68;;;;;;;9.88;77.46;96053.22;5081028;28;20080;-79
2023/02/24 04:03:56;;;;;;;18.38;14.30;;;;;;;9.88;77.80;96048.03;5080583;28;20494;-80
2023/02/24 04:06:33;;;;;;;19.95;14.85;;;;;;;9.84;76.91;96031.16;5079906;28;20060;-77
2023/02/24 04:09:10;;;;;;;19.48;13.88;;;;;;;9.83;77.56;96039.16;5079310;28;20076;-78
2023/02/24 04:11:45;;;;;;;16.23;13.25;;;;;;;9.81;76.75;96041.13;5079491;28;20048;-78
2023/02/24 04:14:23;;;;;;;17.25;13.50;;;;;;;9.78;77.92;96038.94;5081627;28;20079;-78
2023/02/24 04:16:59;;;;;;;17.95;13.35;;;;;;;9.78;78.37;96034.53;5079686;28;20055;-77
2023/02/24 04:19:31;;;;;;;16.42;12.98;;;;;;;9.81;77.43;96041.94;5077908;28;20051;-78
2023/02/24 04:22:03;;;;;;;15.27;12.02;;;;;;;9.84;78.25;96036.38;5078857;28;20116;-79
2023/02/24 04:24:33;;;;;;;18.25;12.77;;;;;;;9.85;77.13;96032.75;5078841;28;20052;-77
2023/02/24 04:27:05;;;;;;;18.55;11.77;;;;;;;9.81;76.44;96021.09;5080141;28;20048;-79
2023/02/24 04:29:39;;;;;;;13.55;10.30;;;;;;;9.79;77.60;96024.91;5086253;28;20107;-81
2023/02/24 04:32:09;;;;;;;14.73;11.15;;;;;;;9.80;78.05;96022.13;5089630;28;20064;-80
2023/02/24 04:34:39;;;;;;;14.43;10.70;;;;;;;9.84;77.29;96014.72;5087319;28;20076;-82
2023/02/24 04:37:08;;;;;;;16.15;12.77;;;;;;;9.80;76.44;96016.91;5085467;28;20052;-81
2023/02/24 04:39:37;;;;;;;16.63;11.48;;;;;;;9.78;77.15;96016.28;5084243;28;20509;-81
2023/02/24 04:42:05;;;;;;;19.77;12.10;;;;;;;9.77;77.11;96011.25;5083911;28;20108;-79
2023/02/24 04:44:33;;;;;;;16.45;13.05;;;;;;;9.68;76.84;96008.78;5082343;28;20083;-80
2023/02/24 04:47:00;;;;;;;17.17;13.35;;;;;;;9.63;76.97;95998.16;5082257;28;20127;-79
2023/02/24 04:49:28;;;;;;;19.98;14.27;;;;;;;9.59;76.83;96007.34;5081955;28;20055;-80
2023/02/24 04:51:56;;;;;;;18.75;13.55;;;;;;;9.55;77.23;96000.91;5082711;28;20115;-79
2023/02/24 04:54:24;;;;;;;19.20;13.07;;;;;;;9.51;77.20;96004.06;5082369;28;20051;-79
2023/02/24 04:56:52;;;;;;;20.23;13.52;;;;;;;9.47;77.24;95999.25;5083158;28;20052;-82
2023/02/24 04:59:22;;;;;;;18.13;13.60;;;;;;;9.45;77.38;95995.25;5081413;28;20044;-80
2023/02/24 05:01:51;;;;;;;21.02;14.70;;;;;;;9.44;77.29;95981.38;5082819;28;20075;-80
2023/02/24 05:04:19;;;;;;;19.75;13.80;;;;;;;9.42;77.32;95980.81;5081937;28;20055;-81
2023/02/24 05:06:48;;;;;;;19.13;13.00;;;;;;;9.42;77.59;95982.59;5083971;28;20052;-80
2023/02/24 05:09:17;;;;;;;19.42;13.68;;;;;;;9.42;77.54;95982.59;5083317;28;20048;-82
2023/02/24 05:11:49;;;;;;;18.95;14.73;;;;;;;9.42;77.87;95978.19;5084830;28;20059;-80
2023/02/24 05:14:19;;;;;;;22.53;16.30;;;;;;;9.41;77.44;95984.38;5084693;28;20068;-80
2023/02/24 05:16:48;;;;;;;23.83;15.80;;;;;;;9.39;77.59;95975.97;5083863;28;20438;-80
2023/02/24 05:22:05;;;;;;;18.90;14.32;;;;;;;9.44;78.20;95968.38;5082546;28;20644;-79
2023/02/24 05:24:34;;;;;;;20.92;15.73;;;;;;;9.49;78.61;95965.22;5082870;28;20456;-80
2023/02/24 05:27:03;;;;;;;23.60;16.70;;;;;;;9.53;77.58;95968.25;5083313;28;20076;-79
2023/02/24 05:29:34;;;;;;;26.92;18.23;;;;;;;9.49;77.15;95960.81;5082043;28;20048;-82
2023/02/24 05:32:04;;;;;;;22.67;16.30;;;;;;;9.44;77.57;95962.38;5081920;28;20044;-79
2023/02/24 05:34:33;;;;;;;24.45;16.75;;;;;;;9.44;77.52;95957.97;5082543;28;20095;-82
2023/02/24 05:37:05;;;;;;;27.52;18.35;;;;;;;9.45;77.75;95956.97;5090056;28;20055;-83
2023/02/24 05:39:33;;;;;;;24.00;15.98;;;;;;;9.48;78.39;95948.78;5089533;28;20108;-82
2023/02/24 05:42:05;;;;;;;24.65;16.98;;;;;;;9.55;79.75;95948.81;5090785;28;20048;-82
2023/02/24 05:44:34;;;;;;;29.52;19.55;;;;;;;9.57;78.15;95941.63;5086493;28;20049;-79
2023/02/24 05:47:04;;;;;;;34.45;22.15;;;;;;;9.58;78.62;95943.25;5082710;28;20399;-80
2023/02/24 05:49:33;;;;;;;30.00;20.15;;;;;;;9.65;78.60;95943.28;5081894;28;20059;-79
2023/02/24 05:52:07;;;;;;;24.27;17.40;;;;;;;9.69;78.34;95952.31;5080539;28;20490;-82
2023/02/24 05:54:38;;;;;;;25.92;17.63;;;;;;;9.69;78.19;95941.91;5065710;28;20057;-78
2023/02/24 05:57:10;;;;;;;28.92;19.00;;;;;;;9.68;77.51;95942.88;5061976;28;20531;-80
2023/02/24 05:59:39;;;;;;;25.35;18.10;;;;;;;9.65;77.82;95944.09;5065551;28;20109;-82
2023/02/24 06:02:11;;;;;;;26.75;18.13;;;;;;;9.58;77.48;95938.03;5082102;28;20044;-80
2023/02/24 06:04:45;;;;;;;26.65;18.15;;;;;;;9.51;77.49;95936.38;5078209;28;20114;-81
2023/02/24 06:07:17;;;;;;;26.02;19.30;;;;;;;9.46;77.54;95939.56;5070273;28;20040;-82
2023/02/24 06:09:48;;;;;;;26.50;17.77;;;;;;;9.42;77.60;95933.94;5080743;28;20049;-82
2023/02/24 06:12:19;;;;;;;26.58;16.98;;;;;;;9.45;79.03;95933.56;5077323;28;20052;-83
2023/02/24 06:14:47;;;;;;;24.65;16.70;;;;;;;9.46;78.60;95935.16;5075161;28;20061;-81
2023/02/24 06:17:17;;;;;;;26.35;18.27;;;;;;;9.48;78.69;95934.97;5077916;28;20143;-77
2023/02/24 06:19:45;;;;;;;25.35;17.95;;;;;;;9.49;78.67;95929.56;5073828;28;20045;-82
2023/02/24 06:22:14;;;;;;;29.90;20.58;;;;;;;9.47;78.16;95926.34;5080098;28;20048;-85
2023/02/24 06:24:44;;;;;;;25.38;18.92;;;;;;;9.48;78.66;95933.16;5080666;28;20052;-79
2023/02/24 06:27:16;;;;;;;30.30;20.15;;;;;;;9.47;78.29;95934.16;5080313;28;20140;-87
2023/02/24 06:29:48;;;;;;;28.23;19.37;;;;;;;9.45;77.72;95933.56;5075684;28;20060;-87
2023/02/24 06:32:17;;;;;;;29.50;19.42;;;;;;;9.43;77.41;95930.34;5079196;28;20285;-79
2023/02/24 06:34:45;;;;;;;28.15;20.20;;;;;;;9.39;77.67;95929.09;5078431;28;20521;-78
2023/02/24 06:37:14;;;;;;;30.50;20.77;;;;;;;9.38;78.06;95935.31;5059213;28;20060;-80
2023/02/24 06:39:42;;;;;;;30.30;21.13;;;;;;;9.40;77.85;95928.13;5077909;28;20136;-78
2023/02/24 06:42:11;;;;;;;33.33;22.42;;;;;;;9.39;77.67;95925.72;5076428;28;20426;-80
2023/02/24 06:44:41;;;;;;;27.15;19.67;;;;;;;9.39;77.97;95929.09;5075852;28;20477;-78
2023/02/24 06:47:12;;;;;;;27.67;18.80;;;;;;;9.42;79.14;95936.56;5071015;28;20131;-79
2023/02/24 06:49:41;;;;;;;27.63;19.00;;;;;;;9.44;78.22;95928.53;5073607;28;20538;-77
2023/02/24 06:52:10;;;;;;;30.80;19.05;;;;;;;9.46;78.68;95924.72;5072746;28;20045;-83
2023/02/24 06:54:38;;;;;;;27.77;19.83;;;;;;;9.48;79.04;95927.16;5077024;28;20049;-77
2023/02/24 06:57:08;;;;;;;29.15;19.98;;;;;;;9.47;78.67;95918.56;5078422;28;20044;-80
2023/02/24 06:59:36;;;;;;;31.38;20.40;;;;;;;9.48;79.00;95922.75;5077454;28;20399;-77
2023/02/24 07:02:04;;;;;;;29.92;19.42;;;;;;;9.52;78.99;95922.38;5075990;28;20044;-80
2023/02/24 07:04:42;;;;;;;34.33;22.95;;;;;;;9.51;78.40;95925.97;5076393;28;20062;-79
2023/02/24 07:07:12;;;;;;;33.70;21.58;;;;;;;9.49;78.84;95924.38;5078893;28;20048;-80
2023/02/24 07:09:42;;;;;;;36.72;23.08;;;;;;;9.48;77.87;95922.75;5076658;28;20083;-79
2023/02/24 07:12:11;;;;;;;33.45;21.50;;;;;;;9.47;78.22;95920.34;5068244;28;20113;-80
2023/02/24 07:14:39;;;;;;;40.42;23.17;;;;;;;9.47;77.53;95925.56;5067560;28;20052;-78
2023/02/24 07:17:07;;;;;;;32.58;20.85;;;;;;;9.43;77.85;95919.94;5066702;28;20697;-77
2023/02/24 07:19:36;;;;;;;38.20;23.20;;;;;;;9.42;77.38;95918.31;5057714;28;20095;-78
2023/02/24 07:22:04;;;;;;;30.63;19.98;;;;;;;9.42;78.35;95918.31;5055813;28;20049;-80
2023/02/24 07:24:35;;;;;;;31.10;21.08;;;;;;;9.46;78.84;95916.94;5067763;28;20055;-79
2023/02/24 07:27:05;;;;;;;36.60;23.13;;;;;;;9.46;78.12;95916.94;5069960;28;20051;-79
2023/02/24 07:29:34;;;;;;;33.75;22.08;;;;;;;9.44;77.38;95915.50;5072279;28;20536;-79
2023/02/24 07:32:04;;;;;;;37.47;23.17;;;;;;;9.38;77.22;95901.47;5076105;28;20131;-78
2023/02/24 07:34:32;;;;;;;38.05;22.02;;;;;;;9.36;77.61;95900.88;5078347;28;20080;-81
2023/02/24 07:37:06;;;;;;;31.25;20.15;;;;;;;9.42;78.97;95891.47;5073489;28;20075;-80
2023/02/24 07:39:36;;;;;;;43.85;23.30;;;;;;;9.45;77.88;95898.91;5073254;28;20071;-84
2023/02/24 07:42:06;;;;;;;37.60;22.90;;;;;;;9.46;78.60;95890.91;5073669;28;20731;-77
2023/02/24 07:44:34;;;;;;;39.03;22.83;;;;;;;9.51;78.92;95892.13;5079293;28;20049;-77
2023/02/24 07:47:06;;;;;;;40.33;22.52;;;;;;;9.55;78.89;95891.53;5059788;28;20052;-77
2023/02/24 07:49:35;;;;;;;43.80;25.65;;;;;;;9.59;78.85;95886.75;5061947;28;20514;-79
2023/02/24 07:52:06;;;;;;;52.92;26.10;;;;;;;9.56;77.75;95887.97;5077708;28;20123;-79
2023/02/24 07:54:35;;;;;;;41.20;23.25;;;;;;;9.56;78.64;95881.94;5078390;28;20048;-79
2023/02/24 07:57:02;;;;;;;46.88;26.27;;;;;;;9.58;78.85;95883.38;5076389;28;20044;-81
2023/02/24 07:59:32;;;;;;;47.40;26.10;;;;;;;9.62;78.40;95888.97;5076027;28;20414;-77
2023/02/24 08:02:03;;;;;;;45.72;25.73;;;;;;;9.65;77.73;95875.59;5076308;28;20450;-77
2023/02/24 08:04:32;;;;;;;45.30;24.88;;;;;;;9.68;78.35;95881.19;5077206;28;20461;-77
2023/02/24 08:07:01;;;;;;;45.67;25.80;;;;;;;9.73;78.49;95885.84;5076663;28;20040;-79
2023/02/24 08:12:26;;;;;;;45.83;25.55;;;;;;;9.71;78.49;95874.81;5058312;28;20049;-79
2023/02/24 08:14:59;;;;;;;50.20;25.73;;;;;;;9.68;78.10;95869.97;5073104;28;20052;-79
2023/02/24 08:17:27;;;;;;;46.85;26.25;;;;;;;9.68;78.55;95867.38;5065751;28;20053;-79
2023/02/24 08:20:20;;;;;;;50.78;26.38;;;;;;;9.68;78.96;95862.97;5068813;28;20045;-81
2023/02/24 08:22:46;;;;;;;47.78;26.63;;;;;;;9.73;78.77;95865.00;5083261;28;20067;-81
2023/02/24 08:25:17;;;;;;;47.58;26.27;;;;;;;9.77;78.57;95868.81;5079795;28;20052;-81
2023/02/24 08:27:54;;;;;;;59.97;29.00;;;;;;;9.78;77.99;95860.00;5074758;28;20096;-82
2023/02/24 08:30:38;;;;;;;49.08;25.08;;;;;;;9.79;78.68;95861.59;5081170;28;20052;-81
2023/02/24 08:33:09;;;;;;;44.60;24.65;;;;;;;9.84;78.67;95864.44;5079495;28;20048;-79
2023/02/24 08:35:43;;;;;;;54.95;27.65;;;;;;;9.86;77.80;95861.63;5070261;28;20457;-79
2023/02/24 08:38:14;;;;;;;40.90;23.90;;;;;;;9.86;78.59;95859.03;5079243;28;20068;-83
2023/02/24 08:40:53;;;;;;;43.42;24.70;;;;;;;9.92;78.38;95855.63;5078452;28;20048;-79
2023/02/24 08:43:31;;;;;;;40.35;24.15;;;;;;;9.96;78.52;95858.66;5081409;28;20044;-82
2023/02/24 08:46:03;;;;;;;38.45;20.75;;;;;;;9.99;77.74;95846.06;5076755;28;20076;-81
2023/02/24 08:48:36;;;;;;;35.25;22.17;;;;;;;10.01;77.39;95846.63;5078282;28;20503;-80
2023/02/24 08:51:08;;;;;;;37.85;21.92;;;;;;;10.01;77.08;95849.25;5074521;28;20056;-82
2023/02/24 08:53:39;;;;;;;35.70;21.45;;;;;;;10.01;77.38;95840.63;5082052;28;20067;-79
2023/02/24 08:56:11;;;;;;;34.05;20.85;;;;;;;10.04;76.97;95842.88;5078101;28;20110;-81
2023/02/24 08:58:45;;;;;;;36.47;20.42;;;;;;;10.04;76.45;95837.66;5075997;28;20128;-80
2023/02/24 09:01:22;;;;;;;32.75;20.15;;;;;;;10.05;77.07;95832.22;5069996;28;20060;-80
2023/02/24 09:03:53;;;;;;;37.83;23.38;;;;;;;10.08;76.44;95833.66;5059524;28;20482;-80
2023/02/24 09:06:35;;;;;;;37.13;20.90;;;;;;;10.06;76.85;95835.66;5066135;28;20052;-83
2023/02/24 09:09:19;;;;;;;36.75;23.02;;;;;;;10.09;76.92;95827.44;5060800;28;20114;-80
2023/02/24 09:11:54;;;;;;;37.90;22.13;;;;;;;10.09;76.69;95830.03;5066693;28;20056;-81
2023/02/24 09:14:25;;;;;;;35.10;22.33;;;;;;;10.07;77.00;95822.41;5080673;28;20143;-80
2023/02/24 09:17:04;;;;;;;42.88;23.63;;;;;;;10.09;77.01;95825.63;5081139;28;20498;-81
2023/02/24 09:22:56;;;;;;;39.50;22.83;;;;;;;10.16;76.90;95819.63;5079352;28;20056;-79
2023/02/24 09:25:24;;;;;;;38.70;23.42;;;;;;;10.20;76.69;95820.84;5077899;28;20075;-81
2023/02/24 09:27:55;;;;;;;36.25;21.83;;;;;;;10.21;76.17;95819.81;5079617;28;20109;-82
2023/02/24 09:30:49;;;;;;;46.33;24.77;;;;;;;10.19;76.34;95817.44;5072290;28;20056;-80
2023/02/24 09:33:21;;;;;;;40.17;22.83;;;;;;;10.19;76.29;95820.03;5080296;28;20131;-81
2023/02/24 09:36:01;;;;;;;39.00;22.35;;;;;;;10.21;76.11;95815.44;5079409;28;20053;-80
2023/02/24 09:41:32;;;;;;;44.55;25.95;;;;;;;10.16;75.87;95811.81;5074940;22;20045;-78
2023/02/24 09:44:06;;;;;;;42.78;22.95;;;;;;;10.16;76.18;95807.41;5070430;28;20052;-78
2023/02/24 09:46:52;;;;;;;51.13;26.13;;;;;;;10.20;75.89;95807.81;5059275;28;20256;-78
2023/02/24 09:49:24;;;;;;;45.08;23.42;;;;;;;10.24;75.73;95804.59;5059680;28;20083;-77
2023/02/24 09:51:59;;;;;;;48.53;23.60;;;;;;;10.27;76.05;95796.38;5039614;28;20153;-78
2023/02/24 09:54:31;;;;;;;46.53;24.65;;;;;;;10.27;75.34;95791.16;5038682;28;20067;-78
2023/02/24 09:57:08;;;;;;;47.38;25.55;;;;;;;10.27;76.00;95788.56;5046963;28;20049;-78
2023/02/24 09:59:59;;;;;;;45.70;24.52;;;;;;;10.30;76.06;95796.03;5050520;28;20511;-78
2023/02/24 10:02:42;;;;;;;44.55;23.40;;;;;;;10.31;76.19;95787.19;5049603;28;20056;-78
2023/02/24 10:05:23;;;;;;;46.03;24.50;;;;;;;10.31;75.34;95787.19;5053464;28;20052;-78
2023/02/24 10:07:52;;;;;;;49.05;23.30;;;;;;;10.31;75.31;95786.38;5049261;28;20453;-77
2023/02/24 10:10:26;;;;;;;46.25;23.27;;;;;;;10.30;75.22;95780.38;5051762;28;20048;-78
2023/02/24 10:13:11;;;;;;;42.47;22.55;;;;;;;10.28;75.56;95781.56;5052727;28;20055;-78
2023/02/24 10:15:57;;;;;;;43.28;23.15;;;;;;;10.28;75.16;95774.53;5046292;28;20045;-78
2023/02/24 10:18:31;;;;;;;42.80;21.88;;;;;;;10.29;75.02;95781.38;5032433;28;20423;-78
2023/02/24 10:21:06;;;;;;;40.22;21.02;;;;;;;10.30;74.54;95780.38;5041866;28;20119;-78
2023/02/24 10:23:55;;;;;;;39.70;22.23;;;;;;;10.35;75.81;95771.16;5033040;28;20392;-78
2023/02/24 10:26:43;;;;;;;40.28;21.38;;;;;;;10.31;74.77;95768.94;5050156;28;20057;-78
2023/02/24 10:29:35;;;;;;;40.97;20.25;;;;;;;10.28;74.33;95769.31;5051503;28;20152;-78
2023/02/24 10:32:22;;;;;;;42.45;20.42;;;;;;;10.24;74.23;95770.72;5044185;28;20128;-78
2023/02/24 10:34:50;;;;;;;41.95;23.73;;;;;;;10.23;74.42;95769.13;5053467;28;20045;-78
2023/02/24 10:37:21;;;;;;;38.13;20.80;;;;;;;10.26;75.22;95766.13;5035441;28;20049;-78
2023/02/24 10:39:57;;;;;;;37.53;19.73;;;;;;;10.33;74.81;95757.53;5040909;28;20049;-77
2023/02/24 10:42:26;;;;;;;36.80;20.05;;;;;;;10.37;74.39;95749.09;5040820;28;20113;-79
2023/02/24 10:45:11;;;;;;;42.47;21.05;;;;;;;10.43;73.91;95747.47;5049935;28;20068;-80
2023/02/24 10:47:55;;;;;;;37.58;19.23;;;;;;;10.47;74.36;95743.47;5033532;28;20168;-81
2023/02/24 10:50:27;;;;;;;36.30;19.95;;;;;;;10.50;74.35;95737.88;5043143;28;20101;-80
2023/02/24 10:53:33;;;;;;;34.70;18.88;;;;;;;10.53;74.28;95742.66;5057777;28;20084;-80
2023/02/24 10:56:25;;;;;;;37.92;18.40;;;;;;;10.52;73.15;95741.06;5055725;28;20533;-80
2023/02/24 11:05:36;;;;;;;31.27;17.27;;;;;;;10.28;73.50;95734.63;5171221;22;20095;-80
2023/02/24 11:08:35;;;;;;;32.60;17.90;;;;;;;10.15;74.13;95730.22;5024619;28;20064;-81
2023/02/24 11:11:18;;;;;;;34.00;19.65;;;;;;;10.07;74.32;95730.41;5013480;28;20460;-79
2023/02/24 11:19:42;;;;;;;33.35;18.27;;;;;;;9.98;73.74;95716.78;4988150;28;20651;-79
2023/02/24 11:22:15;;;;;;;35.88;18.58;;;;;;;9.98;73.65;95711.56;5015076;28;20045;-79
2023/02/24 11:24:44;;;;;;;37.80;18.55;;;;;;;9.90;73.59;95707.38;4993702;28;20150;-78
2023/02/24 11:27:13;;;;;;;31.83;17.45;;;;;;;9.84;74.67;95705.56;5005801;28;20046;-79
2023/02/24 11:29:53;;;;;;;33.83;17.75;;;;;;;9.86;74.66;95703.56;4989493;28;20078;-79
2023/02/24 11:32:38;;;;;;;32.22;17.92;;;;;;;9.95;75.51;95700.72;4995918;28;20053;-79
2023/02/24 11:35:17;;;;;;;32.45;17.73;;;;;;;10.03;75.03;95698.72;4987814;28;20049;-80
2023/02/24 11:37:59;;;;;;;36.45;18.88;;;;;;;10.08;73.99;95692.94;4986764;28;20057;-80
2023/02/24 11:40:30;;;;;;;40.83;18.60;;;;;;;10.09;73.38;95689.31;5000939;28;20056;-80
2023/02/24 11:43:03;;;;;;;34.78;18.08;;;;;;;10.13;73.56;95679.31;4997335;28;20588;-79
2023/02/24 11:45:33;;;;;;;;;;;;;;;10.15;73.07;95679.91;4996857;28;20042;-80
2023/02/24 11:48:05;;;;;;;36.63;16.92;;;;;;;10.11;73.01;95676.91;4996586;28;19922;-79
2023/02/24 11:50:43;;;;;;;42.38;20.55;;;;;;;10.04;72.45;95670.91;4998241;28;20049;-80
2023/02/24 11:53:32;;;;;;;32.15;19.15;;;;;;;9.95;72.94;95659.88;4993006;28;20485;-80
2023/02/24 11:56:03;;;;;;;33.10;18.25;;;;;;;9.89;72.78;95660.66;4995934;28;20129;-79
2023/02/24 11:58:40;;;;;;;38.35;20.13;;;;;;;9.80;72.87;95657.47;4995632;28;20133;-78
2023/02/24 12:01:14;;;;;;;37.83;19.55;;;;;;;9.76;72.86;95653.66;4991717;28;20110;-78
2023/02/24 12:03:52;;;;;;;34.25;19.40;;;;;;;9.74;73.54;95644.44;5004900;28;20058;-78
2023/02/24 12:06:26;;;;;;;36.03;18.45;;;;;;;9.72;73.15;95642.03;5003223;28;20053;-77
2023/02/24 12:09:01;;;;;;;32.42;18.45;;;;;;;9.76;74.12;95642.44;5002426;28;20069;-78
2023/02/24 12:11:39;;;;;;;34.08;19.02;;;;;;;9.81;73.33;95635.59;4997039;28;20074;-78
2023/02/24 12:14:18;;;;;;;31.33;19.13;;;;;;;9.87;74.20;95634.03;4996179;28;20465;-78
2023/02/24 12:16:52;;;;;;;33.65;19.38;;;;;;;9.81;72.01;95614.78;5001261;28;20056;-78
2023/02/24 12:19:27;;;;;;;34.83;19.23;;;;;;;9.67;72.60;95613.97;4994757;28;20057;-79